Huvudsida
METAR-TAF:

METAR-TAF

Flygplatser :

Stavanger, Norge

Stavangers flygplats. Sola

latitud: 58-53N, longitud: 005-38E, höjd: 0 m

Aktuellt väderrapport

Denna rapport gjordes för 24 minuter sedan, klockan 02:50 UTC
Vind 12 kt från sydost
Temperatur 1°C
Fuktighet 80%
Tryck 995 hPa
Sikt 10 km eller mer
Få moln på en höjd av 3000 ft
Brutna moln på en höjd av 4000 ft

METAR: ENZV 190250Z 14012KT 9999 FEW030 BKN040 01/M02 Q0995

Tid: 04:14 (03:14 UTC)

Väderprognos

Prognos gäller från 19 kl. 02 UTC till 19 kl. 24 UTC
Vind 8 kt från syd/sydost
Sikt 10 km eller mer
Få moln på en höjd av 1500 ft, Cumulonimbus.
Brutna moln på en höjd av 3000 ft
Temporärt
från 19 kl. 02 UTC till 19 kl. 24 UTC
Vind 18 kt från syd/sydost
Sikt: 0900 m
på en höjd av 700 ft
snöbyar, småhagel eller snökorn
Sannolikhet 30% :
Temporärt
från 19 kl. 02 UTC till 19 kl. 24 UTC
åska

TAF: ENZV 1902/1924 15008KT 9999 FEW015CB BKN030 TEMPO 1902/1924 15018KT 0900 SHSNGS VV007 PROB30 TEMPO 1902/1924 TS

Aktuella väderrapporter och prognoser från 4000 flygplatser (METAR- och TAF-rapporter).

De tillgängliga stationerna syns som gula och röda prickar på kartan.

För musen över prickarna för att se namnen på stationerna.

Klicka sedan för att få väderrapporter och prognoser.

För att ändra kartan: Klicka på de gröna knapparna med ett svart kors på för att zooma in; den gröna knappen med ett streck på för att zooma ut; eller på de gröna pilarna för angränsande kartor.


METAR-TAF: